Historique des mesures à Cassis (13260), France
Quotidien Résumé Septembre 17, 2021 Unités:  Métrique/US    US   Métrique
Quotidien Hebdomadaire Mensuel Annuel
  Maximum: Minimum: Moyenne:
Température: 89.4 °F /  31.9 °C 67.1 °F /  19.5 °C 78.6 °F /  25.9 °C
Point de rosée: 61 °F /  16.1 °C 55.4 °F /  13 °C 58.3 °F /  14.6 °C
Humidité: 69% 35% 51%
Vitesse du vent: 19.7mph /  31.7km/h - 6.9mph /  11.1km/h
Rafales: 20.6mph /  33.1km/h - -
Vent- - WNW
Pression: 29.9 in /  1011.7 hPa 29.8 in /  1008.6 hPa -
Précipitations: 0 in /  0.0 mm    
Historical Graphs
 
 
Mesures pour : Septembre 17, 2021
Heure Temperature Point de rosée Pression Vent Vitesse du vent Rafales Humidité Pluie (par heure)
00:11 70.3 °F /  21.3 °C 56.7 °F /  13.7 °C 29.9in /  1011.5hPa Calm   3.8mph /  6.1km/h 62% 0in /  0.0mm
01:11 70 °F /  21.1 °C 58.5 °F /  14.7 °C 29.9in /  1011.7hPa Calm   2.5mph /  4km/h 67% 0in /  0.0mm
02:11 68.5 °F /  20.3 °C 57.9 °F /  14.4 °C 29.9in /  1011.6hPa NNW 1.8mph /  2.9km/h 2.2mph /  3.6km/h 69% 0in /  0.0mm
03:11 67.8 °F /  19.9 °C 57.4 °F /  14.1 °C 29.9in /  1011.6hPa Calm   2.2mph /  3.6km/h 69% 0in /  0.0mm
04:11 67.8 °F /  19.9 °C 56.5 °F /  13.6 °C 29.9in /  1010.8hPa Calm   5.8mph /  9.4km/h 67% 0in /  0.0mm
05:11 67.6 °F /  19.8 °C 55.8 °F /  13.2 °C 29.8in /  1010.4hPa Calm     66% 0in /  0.0mm
06:11 67.1 °F /  19.5 °C 55.4 °F /  13 °C 29.8in /  1010.6hPa Calm   6.7mph /  10.8km/h 66% 0in /  0.0mm
07:11 67.6 °F /  19.8 °C 56.3 °F /  13.5 °C 29.8in /  1010.6hPa WNW 1.1mph /  1.8km/h 6.7mph /  10.8km/h 67% 0in /  0.0mm
08:11 84 °F /  28.9 °C 60.4 °F /  15.8 °C 29.8in /  1010.7hPa NNW 6.3mph /  10.1km/h 13.2mph /  21.2km/h 45% 0in /  0.0mm
09:11 77.2 °F /  25.1 °C 55.9 °F /  13.3 °C 29.8in /  1010.5hPa WNW 3.6mph /  5.8km/h 13.2mph /  21.2km/h 48% 0in /  0.0mm
10:11 79.2 °F /  26.2 °C 56.5 °F /  13.6 °C 29.8in /  1010.7hPa NNW 9.6mph /  15.5km/h 14.1mph /  22.7km/h 46% 0in /  0.0mm
11:11 85.1 °F /  29.5 °C 59.5 °F /  15.3 °C 29.8in /  1010.4hPa WSW 7.6mph /  12.2km/h 16.3mph /  26.3km/h 42% 0in /  0.0mm
12:11 85.6 °F /  29.8 °C 59.9 °F /  15.5 °C 29.8in /  1010.5hPa WNW 14.5mph /  23.4km/h 20.6mph /  33.1km/h 42% 0in /  0.0mm
13:11 87.3 °F /  30.7 °C 59.4 °F /  15.2 °C 29.8in /  1010.1hPa NW 13.4mph /  21.6km/h 18.8mph /  30.2km/h 39% 0in /  0.0mm
14:11 87.8 °F /  31 °C 58.3 °F /  14.6 °C 29.8in /  1010.1hPa SW 4.9mph /  7.9km/h 17.5mph /  28.1km/h 37% 0in /  0.0mm
15:11 87.3 °F /  30.7 °C 57.7 °F /  14.3 °C 29.8in /  1009.7hPa WSW 13.9mph /  22.3km/h 17.5mph /  28.1km/h 37% 0in /  0.0mm
16:11 88.5 °F /  31.4 °C 57.2 °F /  14 °C 29.8in /  1009.3hPa West 9.2mph /  14.8km/h 20.6mph /  33.1km/h 35% 0in /  0.0mm
17:11 89.4 °F /  31.9 °C 58.8 °F /  14.9 °C 29.8in /  1009.0hPa WSW 11.9mph /  19.1km/h 18.8mph /  30.2km/h 36% 0in /  0.0mm
18:11 88.2 °F /  31.2 °C 59.4 °F /  15.2 °C 29.8in /  1008.7hPa West 6.5mph /  10.4km/h 19.4mph /  31.3km/h 38% 0in /  0.0mm
19:11 84.7 °F /  29.3 °C 59.2 °F /  15.1 °C 29.8in /  1008.7hPa West 19.7mph /  31.7km/h 19.7mph /  31.7km/h 42% 0in /  0.0mm
20:11 81.7 °F /  27.6 °C 58.8 °F /  14.9 °C 29.8in /  1008.6hPa WNW 9.8mph /  15.8km/h 16.3mph /  26.3km/h 46% 0in /  0.0mm
21:11 79.3 °F /  26.3 °C 59.7 °F /  15.4 °C 29.8in /  1008.6hPa WNW 7.8mph /  12.6km/h 14.3mph /  23km/h 51% 0in /  0.0mm
22:11 77.7 °F /  25.4 °C 60.8 °F /  16 °C 29.8in /  1008.6hPa NW 13mph /  20.9km/h 14.3mph /  23km/h 56% 0in /  0.0mm
23:11 76.8 °F /  24.9 °C 61 °F /  16.1 °C 29.8in /  1008.6hPa WNW 10.5mph /  16.9km/h 14.8mph /  23.8km/h 58% 0in /  0.0mm
Observations météo à CASSIS
WU-History script by Weather Underground - 2 mb